createdAt,value
2023-11-23T00:01:50.919Z,12.70
2023-11-23T00:04:17.548Z,10.10
2023-11-23T00:06:45.102Z,10.95
2023-11-23T00:09:11.953Z,12.60
2023-11-23T00:11:38.812Z,18.20
2023-11-23T00:14:05.561Z,11.88
2023-11-23T00:16:32.372Z,12.02
2023-11-23T00:18:58.999Z,13.27
2023-11-23T00:21:25.746Z,11.40
2023-11-23T00:23:54.378Z,12.18
2023-11-23T00:26:21.001Z,13.45
2023-11-23T00:28:47.501Z,19.20
2023-11-23T00:31:14.046Z,11.82
2023-11-23T00:33:40.769Z,12.77
2023-11-23T00:36:08.044Z,11.40
2023-11-23T00:38:35.068Z,11.85
2023-11-23T00:41:04.396Z,12.23
2023-11-23T00:43:30.941Z,13.95
2023-11-23T00:45:57.590Z,11.85
2023-11-23T00:48:24.267Z,10.85
2023-11-23T00:50:50.926Z,13.70
2023-11-23T00:53:17.448Z,12.82
2023-11-23T00:55:44.373Z,13.35
2023-11-23T00:58:10.933Z,12.10
2023-11-23T01:00:37.720Z,11.60
2023-11-23T01:03:04.665Z,9.52
2023-11-23T01:05:31.363Z,11.45
2023-11-23T01:07:58.000Z,10.65
2023-11-23T01:10:26.033Z,12.25
2023-11-23T01:12:52.602Z,10.98
2023-11-23T01:15:19.915Z,5.95
2023-11-23T01:17:46.505Z,15.38
2023-11-23T01:20:13.236Z,14.68
2023-11-23T01:22:39.799Z,14.45
2023-11-23T01:25:09.988Z,14.43
2023-11-23T01:27:37.300Z,14.68
2023-11-23T01:30:07.142Z,13.63
2023-11-23T01:32:34.170Z,13.13
2023-11-23T01:35:00.859Z,11.25
2023-11-23T01:37:27.432Z,13.95
2023-11-23T01:39:54.257Z,14.38
2023-11-23T01:42:21.109Z,11.23
2023-11-23T01:44:48.547Z,13.10
2023-11-23T01:47:15.733Z,13.23
2023-11-23T01:49:45.559Z,13.05
2023-11-23T01:52:13.036Z,12.32
2023-11-23T01:54:39.854Z,8.25
2023-11-23T01:57:08.549Z,13.23
2023-11-23T01:59:37.053Z,13.10
2023-11-23T02:02:06.293Z,12.55
2023-11-23T02:04:33.573Z,13.38
2023-11-23T02:07:00.950Z,13.55
2023-11-23T02:09:29.907Z,16.63
2023-11-23T02:11:57.120Z,12.07
2023-11-23T02:14:23.851Z,13.73
2023-11-23T02:16:50.395Z,13.75
2023-11-23T02:19:17.993Z,10.68
2023-11-23T02:21:44.782Z,13.15
2023-11-23T02:24:14.694Z,11.65
2023-11-23T02:26:41.286Z,14.05
2023-11-23T02:29:07.888Z,9.63
2023-11-23T02:31:34.545Z,14.88
2023-11-23T02:34:03.910Z,12.38
2023-11-23T02:36:30.482Z,13.45
2023-11-23T02:38:57.021Z,18.65
2023-11-23T02:41:23.687Z,15.88
2023-11-23T02:43:50.177Z,16.30
2023-11-23T02:46:16.787Z,12.60
2023-11-23T02:48:43.494Z,14.55
2023-11-23T02:51:10.436Z,13.25
2023-11-23T02:53:44.846Z,11.75
2023-11-23T02:56:12.176Z,13.25
2023-11-23T02:58:40.442Z,10.43
2023-11-23T03:01:07.103Z,12.68
2023-11-23T03:03:33.772Z,14.70
2023-11-23T03:06:01.227Z,13.95
2023-11-23T03:08:29.016Z,15.05
2023-11-23T03:10:55.659Z,12.90
2023-11-23T03:13:22.756Z,15.98
2023-11-23T03:15:52.601Z,14.38
2023-11-23T03:18:19.521Z,14.02
2023-11-23T03:20:47.277Z,18.27
2023-11-23T03:23:14.086Z,13.45
2023-11-23T03:25:40.961Z,13.27
2023-11-23T03:28:08.571Z,15.07
2023-11-23T03:30:37.203Z,11.88
2023-11-23T03:33:04.463Z,14.90
2023-11-23T03:35:31.057Z,10.65
2023-11-23T03:37:57.670Z,9.18
2023-11-23T03:40:24.240Z,15.65
2023-11-23T03:42:50.815Z,14.60
2023-11-23T03:45:17.742Z,14.18
2023-11-23T03:47:44.511Z,9.95
2023-11-23T03:50:14.312Z,14.40
2023-11-23T03:52:41.287Z,15.98
2023-11-23T03:55:09.479Z,17.15
2023-11-23T03:57:37.985Z,17.95
2023-11-23T04:00:06.259Z,15.52
2023-11-23T04:02:34.090Z,14.48
2023-11-23T04:05:00.826Z,14.35
2023-11-23T04:07:27.382Z,13.82
2023-11-23T04:09:53.955Z,14.98
2023-11-23T04:12:20.531Z,12.32
2023-11-23T04:14:47.174Z,15.23
2023-11-23T04:17:14.336Z,12.25
2023-11-23T04:19:41.362Z,15.07
2023-11-23T04:22:08.076Z,13.05
2023-11-23T04:24:38.697Z,12.98
2023-11-23T04:27:05.801Z,15.00
2023-11-23T04:29:32.456Z,14.45
2023-11-23T04:31:59.070Z,17.38
2023-11-23T04:34:25.673Z,13.48
2023-11-23T04:36:54.846Z,16.60
2023-11-23T04:39:21.469Z,16.00
2023-11-23T04:41:48.024Z,12.50
2023-11-23T04:44:14.548Z,12.85
2023-11-23T04:46:42.347Z,13.30
2023-11-23T04:49:08.983Z,10.63
2023-11-23T04:51:35.521Z,13.90
2023-11-23T04:54:02.106Z,12.43
2023-11-23T04:56:28.725Z,16.05
2023-11-23T04:58:55.247Z,9.77
2023-11-23T05:01:21.820Z,12.13
2023-11-23T05:03:48.477Z,13.95
2023-11-23T05:06:16.741Z,12.52
2023-11-23T05:08:43.723Z,11.45
2023-11-23T05:11:10.241Z,11.93
2023-11-23T05:13:36.739Z,13.85
2023-11-23T05:16:03.450Z,13.48
2023-11-23T05:18:30.087Z,13.93
2023-11-23T05:20:56.815Z,16.35
2023-11-23T05:23:23.407Z,14.75
2023-11-23T05:25:50.622Z,12.18
2023-11-23T05:28:17.567Z,14.95
2023-11-23T05:30:46.833Z,14.60
2023-11-23T05:33:13.552Z,14.20
2023-11-23T05:35:40.187Z,16.15
2023-11-23T05:38:06.791Z,11.77
2023-11-23T05:40:33.512Z,13.40
2023-11-23T05:43:05.406Z,13.48
2023-11-23T05:45:33.463Z,14.55
2023-11-23T05:48:00.270Z,15.38
2023-11-23T05:50:27.105Z,15.05
2023-11-23T05:52:53.729Z,15.48
2023-11-23T05:55:20.246Z,14.68
2023-11-23T05:57:46.877Z,14.60
2023-11-23T06:00:15.506Z,13.98
2023-11-23T06:02:42.452Z,14.50
2023-11-23T06:05:10.015Z,15.07
2023-11-23T06:07:36.693Z,13.63
2023-11-23T06:10:06.096Z,14.77
2023-11-23T06:12:32.878Z,15.27
2023-11-23T06:14:59.470Z,13.50
2023-11-23T06:17:26.099Z,14.50
2023-11-23T06:19:52.707Z,12.98
2023-11-23T06:22:19.602Z,15.50
2023-11-23T06:24:46.157Z,13.60
2023-11-23T06:27:13.020Z,15.65
2023-11-23T06:29:39.592Z,14.98
2023-11-23T06:32:07.154Z,16.77
2023-11-23T06:34:33.944Z,20.20
2023-11-23T06:37:01.063Z,15.55
2023-11-23T06:39:27.922Z,15.82
2023-11-23T06:41:55.382Z,16.15
2023-11-23T06:44:22.998Z,14.80
2023-11-23T06:46:50.008Z,13.82
2023-11-23T06:49:16.600Z,19.40
2023-11-23T06:51:43.168Z,14.77
2023-11-23T06:54:12.576Z,15.23
2023-11-23T06:56:39.289Z,14.05
2023-11-23T06:59:05.868Z,14.00
2023-11-23T07:01:33.067Z,14.73
2023-11-23T07:03:59.732Z,13.23
2023-11-23T07:06:27.750Z,13.73
2023-11-23T07:08:55.341Z,15.88
2023-11-23T07:11:23.013Z,18.48
2023-11-23T07:13:50.848Z,12.55
2023-11-23T07:16:17.589Z,18.70
2023-11-23T07:18:44.635Z,15.13
2023-11-23T07:21:11.304Z,14.18
2023-11-23T07:23:38.021Z,15.18
2023-11-23T07:26:05.013Z,15.30
2023-11-23T07:28:33.445Z,13.63
2023-11-23T07:31:02.222Z,11.65
2023-11-23T07:33:35.815Z,13.25
2023-11-23T07:36:04.688Z,12.02
2023-11-23T07:38:31.858Z,14.60
2023-11-23T07:40:58.390Z,14.13
2023-11-23T07:43:25.047Z,14.85
2023-11-23T07:45:51.926Z,13.75
2023-11-23T07:48:19.548Z,12.25
2023-11-23T07:50:46.418Z,13.55
2023-11-23T07:53:13.155Z,12.88
2023-11-23T07:55:39.848Z,12.55
2023-11-23T07:58:09.286Z,10.88
2023-11-23T08:00:39.205Z,13.48
2023-11-23T08:03:06.701Z,12.93
2023-11-23T08:05:33.347Z,13.63
2023-11-23T08:07:59.931Z,16.50
2023-11-23T08:10:26.533Z,11.52
2023-11-23T08:12:55.071Z,15.02
2023-11-23T08:15:22.628Z,14.52
2023-11-23T08:17:58.193Z,32.97
2023-11-23T08:20:28.611Z,12.73
2023-11-23T08:22:55.476Z,12.80
2023-11-23T08:25:22.441Z,11.35
2023-11-23T08:27:48.997Z,18.83
2023-11-23T08:30:16.971Z,14.10
2023-11-23T08:32:43.644Z,14.35
2023-11-23T08:35:10.269Z,12.70
2023-11-23T08:37:37.020Z,13.15
2023-11-23T08:40:06.217Z,11.75
2023-11-23T08:42:34.594Z,14.95
2023-11-23T08:45:02.380Z,13.68
2023-11-23T08:47:29.298Z,12.50
2023-11-23T08:49:56.583Z,13.02
2023-11-23T08:52:23.534Z,12.65
2023-11-23T08:54:50.359Z,12.40
2023-11-23T08:57:16.948Z,15.82
2023-11-23T08:59:43.544Z,12.70
2023-11-23T09:02:19.345Z,13.50
2023-11-23T09:04:47.786Z,14.20
2023-11-23T09:07:14.579Z,14.15
2023-11-23T09:09:41.771Z,13.20
2023-11-23T09:12:08.835Z,14.43
2023-11-23T09:14:46.097Z,11.60
2023-11-23T09:17:16.201Z,17.08
2023-11-23T09:19:43.308Z,11.20
2023-11-23T09:22:11.865Z,15.70
2023-11-23T09:24:39.736Z,13.23
2023-11-23T09:27:13.666Z,12.85
2023-11-23T09:29:40.553Z,11.60
2023-11-23T09:32:07.681Z,12.57
2023-11-23T09:34:34.424Z,12.68
2023-11-23T09:37:01.163Z,16.20
2023-11-23T09:39:31.168Z,10.38
2023-11-23T09:41:59.808Z,15.15
2023-11-23T09:44:29.641Z,14.23
2023-11-23T09:46:57.969Z,12.65
2023-11-23T09:49:25.965Z,11.55
2023-11-23T09:51:56.521Z,12.13
2023-11-23T09:54:29.481Z,14.15
2023-11-23T09:56:56.730Z,17.52
2023-11-23T09:59:24.890Z,12.57
2023-11-23T10:01:55.732Z,9.13
2023-11-23T10:04:22.668Z,17.38
2023-11-23T10:06:49.307Z,13.30
2023-11-23T10:09:16.774Z,11.57
2023-11-23T10:11:44.027Z,12.48
2023-11-23T10:14:12.096Z,14.40
2023-11-23T10:16:38.730Z,14.98
2023-11-23T10:19:06.198Z,13.18
2023-11-23T10:21:32.987Z,15.07
2023-11-23T10:24:09.179Z,11.15
2023-11-23T10:29:02.532Z,14.07
2023-11-23T10:31:31.953Z,14.10
2023-11-23T10:34:00.125Z,17.55
2023-11-23T10:36:27.509Z,14.30
2023-11-23T10:38:57.114Z,13.85
2023-11-23T10:41:23.778Z,14.50
2023-11-23T10:43:50.951Z,9.20
2023-11-23T10:46:24.882Z,13.45
2023-11-23T10:48:53.590Z,15.38
2023-11-23T10:51:25.301Z,12.48
2023-11-23T10:53:51.923Z,8.02
2023-11-23T10:56:22.114Z,14.40
2023-11-23T10:58:53.545Z,11.85
2023-11-23T11:01:23.697Z,15.15
2023-11-23T11:03:51.299Z,9.50
2023-11-23T11:06:19.065Z,7.47
2023-11-23T11:08:51.002Z,10.82
2023-11-23T11:11:25.383Z,9.90
2023-11-23T11:14:04.015Z,15.80
2023-11-23T11:16:35.633Z,12.40
2023-11-23T11:19:10.971Z,12.30
2023-11-23T11:21:44.954Z,10.40
2023-11-23T11:24:23.269Z,8.57
2023-11-23T11:26:50.750Z,8.02
2023-11-23T11:29:18.431Z,12.20
2023-11-23T11:31:50.530Z,9.10
2023-11-23T11:34:22.460Z,13.35
2023-11-23T11:36:59.775Z,11.02
2023-11-23T11:39:37.036Z,8.32
2023-11-23T11:42:08.441Z,9.98
2023-11-23T11:44:36.372Z,9.50
2023-11-23T11:47:05.858Z,9.52
2023-11-23T11:49:32.446Z,11.73
2023-11-23T11:51:59.497Z,7.20
2023-11-23T11:54:26.487Z,9.43
2023-11-23T11:56:54.077Z,8.30
2023-11-23T11:59:22.167Z,7.97
2023-11-23T12:01:50.164Z,10.63
2023-11-23T12:04:17.709Z,12.30
2023-11-23T12:06:51.860Z,10.45
2023-11-23T12:09:34.570Z,8.48
2023-11-23T12:12:11.470Z,7.97
2023-11-23T12:14:38.629Z,10.63
2023-11-23T12:17:13.491Z,9.98
2023-11-23T12:19:59.064Z,7.68
2023-11-23T12:22:28.450Z,8.23
2023-11-23T12:25:00.459Z,8.30
2023-11-23T12:27:27.977Z,6.90
2023-11-23T12:29:55.125Z,7.57
2023-11-23T12:32:22.786Z,7.90
2023-11-23T12:34:49.446Z,7.55
2023-11-23T12:37:16.519Z,9.15
2023-11-23T12:39:43.182Z,9.05
2023-11-23T12:42:09.810Z,7.15
2023-11-23T12:44:36.879Z,9.80
2023-11-23T12:47:04.007Z,7.15
2023-11-23T12:49:30.701Z,6.35
2023-11-23T12:51:57.385Z,9.45
2023-11-23T12:54:23.998Z,9.63
2023-11-23T12:56:52.758Z,5.50
2023-11-23T12:59:19.381Z,8.70
2023-11-23T13:01:46.014Z,6.22
2023-11-23T13:04:14.050Z,9.25
2023-11-23T13:06:41.179Z,6.10
2023-11-23T13:09:13.059Z,5.40
2023-11-23T13:11:41.047Z,7.20
2023-11-23T13:14:08.731Z,7.28
2023-11-23T13:16:35.903Z,5.45
2023-11-23T13:19:15.892Z,7.32
2023-11-23T13:21:50.687Z,8.60
2023-11-23T13:24:17.515Z,8.13
2023-11-23T13:26:44.151Z,7.13
2023-11-23T13:29:11.498Z,7.07
2023-11-23T13:31:39.926Z,8.43
2023-11-23T13:34:08.633Z,7.45
2023-11-23T13:36:36.773Z,9.23
2023-11-23T13:39:04.633Z,4.47
2023-11-23T13:41:32.102Z,8.45
2023-11-23T13:43:59.722Z,6.07
2023-11-23T13:46:27.081Z,6.88
2023-11-23T13:48:54.477Z,5.82
2023-11-23T13:51:23.103Z,4.30
2023-11-23T13:53:51.246Z,5.90
2023-11-23T13:56:17.868Z,7.28
2023-11-23T13:58:45.297Z,5.63
2023-11-23T14:01:16.482Z,10.63
2023-11-23T14:03:43.831Z,7.72
2023-11-23T14:06:12.843Z,6.15
2023-11-23T14:11:07.166Z,4.70
2023-11-23T14:13:34.014Z,6.90
2023-11-23T14:16:00.851Z,4.28
2023-11-23T14:18:29.977Z,4.93
2023-11-23T14:20:56.802Z,5.93
2023-11-23T14:23:23.385Z,5.20
2023-11-23T14:25:51.237Z,6.50
2023-11-23T14:28:18.768Z,7.60
2023-11-23T14:30:45.821Z,3.67
2023-11-23T14:33:12.697Z,6.90
2023-11-23T14:35:39.624Z,6.75
2023-11-23T14:38:07.011Z,5.72
2023-11-23T14:40:35.084Z,5.25
2023-11-23T14:43:02.926Z,5.72
2023-11-23T14:45:33.072Z,7.10
2023-11-23T14:48:00.292Z,3.95
2023-11-23T14:50:30.055Z,4.72
2023-11-23T14:52:59.334Z,4.28
2023-11-23T14:55:26.378Z,5.35
2023-11-23T14:57:53.104Z,4.78
2023-11-23T15:00:20.062Z,5.38
2023-11-23T15:02:47.068Z,8.98
2023-11-23T15:05:14.168Z,9.13
2023-11-23T15:07:41.252Z,9.52
2023-11-23T15:10:13.377Z,6.20
2023-11-23T15:12:41.152Z,4.88
2023-11-23T15:15:08.501Z,7.07
2023-11-23T15:17:35.274Z,7.78
2023-11-23T15:20:01.874Z,6.50
2023-11-23T15:22:28.898Z,7.47
2023-11-23T15:25:05.864Z,5.78
2023-11-23T15:27:36.766Z,5.75
2023-11-23T15:30:04.324Z,5.88
2023-11-23T15:32:31.573Z,7.13
2023-11-23T15:34:58.316Z,5.63
2023-11-23T15:37:24.936Z,5.05
2023-11-23T15:39:51.649Z,7.85
2023-11-23T15:42:18.397Z,5.38
2023-11-23T15:44:45.047Z,6.72
2023-11-23T15:47:13.029Z,5.45
2023-11-23T15:49:39.700Z,5.95
2023-11-23T15:52:07.322Z,6.07
2023-11-23T15:54:33.989Z,7.18
2023-11-23T15:57:01.077Z,10.80
2023-11-23T15:59:28.098Z,6.80
2023-11-23T16:01:54.941Z,7.72
2023-11-23T16:04:22.398Z,7.25
2023-11-23T16:06:49.439Z,7.75
2023-11-23T16:09:20.419Z,9.05
2023-11-23T16:11:47.536Z,7.07
2023-11-23T16:14:14.191Z,6.38
2023-11-23T16:16:40.875Z,6.35
2023-11-23T16:19:08.059Z,6.43
2023-11-23T16:21:34.676Z,6.75
2023-11-23T16:24:01.404Z,6.28
2023-11-23T16:26:32.297Z,5.82
2023-11-23T16:29:01.977Z,12.07
2023-11-23T16:31:28.736Z,6.18
2023-11-23T16:33:57.479Z,8.70
2023-11-23T16:36:33.070Z,6.80
2023-11-23T16:39:05.751Z,7.05
2023-11-23T16:41:32.571Z,4.32
2023-11-23T16:43:59.199Z,8.98
2023-11-23T16:46:25.908Z,7.22
2023-11-23T16:48:52.742Z,9.23
2023-11-23T16:51:20.289Z,9.23
2023-11-23T16:53:47.115Z,8.60
2023-11-23T16:56:14.353Z,7.70
2023-11-23T16:58:41.883Z,6.07
2023-11-23T17:01:08.509Z,7.90
2023-11-23T17:03:35.455Z,10.48
2023-11-23T17:06:02.170Z,8.05
2023-11-23T17:08:29.132Z,8.02
2023-11-23T17:10:56.107Z,12.95
2023-11-23T17:13:24.451Z,6.32
2023-11-23T17:15:51.293Z,10.77
2023-11-23T17:18:21.313Z,4.38
2023-11-23T17:20:48.038Z,9.25
2023-11-23T17:23:16.341Z,7.07
2023-11-23T17:25:43.526Z,8.70
2023-11-23T17:28:12.127Z,5.80
2023-11-23T17:30:39.488Z,7.80
2023-11-23T17:33:06.161Z,7.30
2023-11-23T17:35:32.752Z,8.52
2023-11-23T17:37:59.389Z,8.80
2023-11-23T17:40:26.225Z,10.38
2023-11-23T17:42:52.927Z,11.30
2023-11-23T17:45:19.969Z,7.97
2023-11-23T17:47:46.746Z,9.93
2023-11-23T17:50:14.133Z,10.00
2023-11-23T17:52:41.643Z,12.10
2023-11-23T17:55:09.159Z,6.70
2023-11-23T17:57:36.607Z,8.15
2023-11-23T18:00:13.814Z,12.77
2023-11-23T18:02:41.731Z,6.88
2023-11-23T18:05:08.896Z,10.73
2023-11-23T18:07:35.598Z,9.38
2023-11-23T18:10:02.240Z,6.63
2023-11-23T18:12:28.858Z,9.57
2023-11-23T18:14:55.554Z,9.50
2023-11-23T18:17:22.128Z,9.20
2023-11-23T18:20:37.621Z,8.27
2023-11-23T18:23:04.395Z,8.20
2023-11-23T18:25:31.921Z,13.25
2023-11-23T18:27:58.519Z,8.57
2023-11-23T18:30:25.243Z,8.43
2023-11-23T18:32:52.031Z,7.13
2023-11-23T18:35:19.724Z,13.48
2023-11-23T18:37:46.459Z,8.10
2023-11-23T18:40:17.398Z,7.43
2023-11-23T18:42:45.860Z,7.38
2023-11-23T18:45:14.089Z,10.80
2023-11-23T18:47:40.987Z,8.30
2023-11-23T18:50:11.576Z,10.10
2023-11-23T18:52:39.319Z,8.40
2023-11-23T18:55:06.829Z,7.70
2023-11-23T18:57:33.737Z,9.70
2023-11-23T19:00:00.962Z,8.65
2023-11-23T19:02:27.719Z,10.35
2023-11-23T19:04:54.603Z,7.07
2023-11-23T19:07:21.226Z,10.60
2023-11-23T19:09:47.979Z,9.88
2023-11-23T19:12:14.761Z,10.25
2023-11-23T19:14:41.351Z,9.38
2023-11-23T19:17:08.005Z,12.13
2023-11-23T19:19:35.470Z,12.00
2023-11-23T19:22:03.327Z,9.48
2023-11-23T19:24:30.185Z,9.38
2023-11-23T19:26:57.159Z,10.02
2023-11-23T19:29:34.928Z,7.97
2023-11-23T19:32:09.797Z,10.15
2023-11-23T19:34:37.050Z,9.70
2023-11-23T19:37:05.204Z,13.63
2023-11-23T19:39:32.557Z,13.73
2023-11-23T19:42:00.008Z,12.63
2023-11-23T19:44:27.345Z,10.50
2023-11-23T19:46:54.357Z,9.25
2023-11-23T19:49:22.028Z,13.13
2023-11-23T19:51:49.815Z,12.95
2023-11-23T19:54:18.332Z,10.50
2023-11-23T19:56:44.973Z,12.05
2023-11-23T19:59:11.549Z,10.25
2023-11-23T20:01:41.200Z,10.38
2023-11-23T20:04:07.995Z,11.20
2023-11-23T20:06:35.952Z,10.65
2023-11-23T20:09:09.594Z,9.40
2023-11-23T20:11:37.786Z,12.02
2023-11-23T20:14:07.867Z,8.10
2023-11-23T20:16:34.619Z,10.10
2023-11-23T20:19:02.734Z,10.88
2023-11-23T20:21:29.485Z,9.93
2023-11-23T20:23:56.129Z,11.07
2023-11-23T20:26:23.100Z,12.43
2023-11-23T20:28:49.723Z,9.60
2023-11-23T20:31:17.906Z,11.52
2023-11-23T20:33:44.984Z,12.38
2023-11-23T20:36:11.712Z,8.52
2023-11-23T20:38:38.239Z,12.35
2023-11-23T20:41:06.497Z,10.60
2023-11-23T20:43:33.368Z,13.40
2023-11-23T20:46:00.235Z,11.63
2023-11-23T20:48:27.715Z,8.88
2023-11-23T20:50:54.602Z,9.80
2023-11-23T20:53:23.481Z,8.77
2023-11-23T20:55:50.298Z,11.02
2023-11-23T20:58:17.477Z,8.73
2023-11-23T21:00:44.454Z,9.95
2023-11-23T21:03:11.712Z,9.75
2023-11-23T21:05:38.574Z,10.55
2023-11-23T21:08:05.505Z,12.25
2023-11-23T21:10:32.342Z,10.07
2023-11-23T21:12:59.391Z,9.88
2023-11-23T21:15:26.062Z,10.73
2023-11-23T21:17:52.677Z,9.75
2023-11-23T21:20:19.284Z,9.57
2023-11-23T21:22:45.927Z,8.82
2023-11-23T21:25:13.544Z,5.90
2023-11-23T21:27:40.309Z,9.95
2023-11-23T21:30:10.497Z,12.85
2023-11-23T21:32:41.130Z,7.95
2023-11-23T21:35:09.275Z,5.90
2023-11-23T21:37:36.712Z,6.43
2023-11-23T21:40:03.741Z,8.77
2023-11-23T21:42:30.959Z,8.63
2023-11-23T21:44:57.823Z,7.82
2023-11-23T21:47:24.402Z,8.38
2023-11-23T21:49:51.244Z,11.27
2023-11-23T21:52:17.911Z,7.70
2023-11-23T21:54:50.664Z,8.05
2023-11-23T21:57:26.941Z,8.30
2023-11-23T21:59:53.540Z,8.00
2023-11-23T22:02:20.172Z,7.78
2023-11-23T22:04:47.357Z,8.70
2023-11-23T22:07:13.938Z,10.85
2023-11-23T22:09:40.714Z,10.90
2023-11-23T22:12:07.598Z,7.95
2023-11-23T22:14:34.205Z,8.32
2023-11-23T22:17:00.999Z,8.18
2023-11-23T22:19:27.847Z,8.52
2023-11-23T22:21:54.623Z,7.07
2023-11-23T22:24:21.683Z,8.23
2023-11-23T22:26:48.734Z,7.28
2023-11-23T22:29:15.586Z,14.32
2023-11-23T22:32:02.817Z,18.13
2023-11-23T22:34:29.661Z,6.80
2023-11-23T22:36:56.513Z,5.60
2023-11-23T22:39:23.402Z,4.03
2023-11-23T22:41:50.529Z,4.18
2023-11-23T22:44:17.585Z,5.13
2023-11-23T22:46:44.651Z,5.80
2023-11-23T22:49:11.282Z,5.47
2023-11-23T22:51:37.879Z,9.52
2023-11-23T22:54:04.599Z,4.90
2023-11-23T22:56:31.257Z,7.32
2023-11-23T22:58:57.988Z,6.32
2023-11-23T23:01:24.956Z,6.22
2023-11-23T23:03:51.708Z,7.78
2023-11-23T23:06:19.491Z,5.00
2023-11-23T23:08:47.158Z,6.95
2023-11-23T23:11:14.702Z,8.98
2023-11-23T23:13:41.433Z,7.65
2023-11-23T23:16:08.199Z,10.02
2023-11-23T23:18:34.842Z,6.43
2023-11-23T23:21:01.399Z,11.90
2023-11-23T23:23:28.078Z,8.82
2023-11-23T23:25:54.628Z,11.10
2023-11-23T23:28:29.525Z,14.07
2023-11-23T23:30:58.967Z,8.93
2023-11-23T23:33:25.643Z,5.78
2023-11-23T23:35:53.285Z,9.60
2023-11-23T23:38:20.456Z,7.03
2023-11-23T23:40:51.529Z,8.85
2023-11-23T23:43:18.834Z,10.55
2023-11-23T23:45:45.774Z,8.43
2023-11-23T23:48:12.441Z,12.43
2023-11-23T23:50:41.515Z,10.15
2023-11-23T23:53:08.239Z,6.60
2023-11-23T23:55:35.038Z,12.93
2023-11-23T23:58:04.011Z,7.45
